Time;durP1;ratioP1;P1;durP2;ratioP2;P2;SDS_P1;SDS_P2;PMS_P1;PMS_P2;Temp;Humidity;BMP_temperature;BMP_pressure;BME280_temperature;BME280_humidity;BME280_pressure;Samples;Min_cycle;Max_cycle;Signal;HPM_P1;HPM_P2
2024/03/14 00:00:05;;;;;;;10.10;6.60;;;;;;;12.56;71.11;98688.41;5094083;28;20016;-49
2024/03/14 00:02:30;;;;;;;10.38;6.20;;;;;;;12.64;70.98;98677.63;5092763;28;20059;-49
2024/03/14 00:04:58;;;;;;;10.57;6.15;;;;;;;12.61;69.12;98672.78;5092753;28;20055;-49
2024/03/14 00:07:24;;;;;;;17.42;11.02;;;;;;;12.39;68.77;98669.69;5094268;28;20036;-49
2024/03/14 00:09:50;;;;;;;15.07;6.85;;;;;;;12.31;69.47;98668.09;5093933;28;20389;-49
2024/03/14 00:12:16;;;;;;;16.77;8.68;;;;;;;12.33;69.42;98678.41;5092511;28;20028;-49
2024/03/14 00:14:49;;;;;;;16.40;10.40;;;;;;;12.21;69.32;98677.47;5092565;28;20046;-49
2024/03/14 00:17:18;;;;;;;13.05;6.95;;;;;;;12.23;68.96;98670.19;5092552;28;20544;-49
2024/03/14 00:19:47;;;;;;;12.85;10.77;;;;;;;11.97;68.99;98666.66;5092383;28;20378;-49
2024/03/14 00:22:21;;;;;;;16.88;10.98;;;;;;;11.62;69.55;98671.44;5093507;28;20395;-49
2024/03/14 00:24:47;;;;;;;25.23;22.92;;;;;;;11.19;70.76;98678.81;5093771;28;20048;-49
2024/03/14 00:27:17;;;;;;;17.20;13.70;;;;;;;10.95;72.62;98671.56;5092260;28;20457;-49
2024/03/14 00:29:42;;;;;;;14.68;10.10;;;;;;;10.78;73.06;98677.22;5092342;28;20020;-49
2024/03/14 00:32:11;;;;;;;17.77;12.85;;;;;;;10.50;73.47;98677.41;5092152;28;20028;-49
2024/03/14 00:34:37;;;;;;;19.90;16.88;;;;;;;10.17;74.47;98685.97;5093427;28;20028;-49
2024/03/14 00:37:03;;;;;;;20.58;18.45;;;;;;;9.90;75.98;98676.38;5093616;28;20027;-49
2024/03/14 00:39:29;;;;;;;15.50;12.13;;;;;;;9.78;77.17;98671.72;5091883;28;20027;-48
2024/03/14 00:41:55;;;;;;;13.48;9.27;;;;;;;9.68;77.63;98681.75;5093178;28;20020;-49
2024/03/14 00:44:39;;;;;;;20.40;15.82;;;;;;;9.53;78.46;98679.25;5093265;28;20024;-48
2024/03/14 00:47:05;;;;;;;19.42;16.58;;;;;;;9.49;78.77;98680.63;5093093;28;20042;-49
2024/03/14 00:49:30;;;;;;;14.73;10.30;;;;;;;9.49;79.27;98677.22;5091982;28;20481;-49
2024/03/14 00:51:57;;;;;;;10.15;7.35;;;;;;;9.41;79.62;98678.19;5075081;28;20024;-49
2024/03/14 00:54:23;;;;;;;11.02;8.43;;;;;;;9.45;79.67;98682.03;5093031;28;20031;-49
2024/03/14 00:56:48;;;;;;;11.20;8.32;;;;;;;9.38;79.82;98682.00;5091625;28;20031;-49
2024/03/14 00:59:15;;;;;;;13.90;8.10;;;;;;;9.37;80.16;98676.94;5092791;28;20489;-49
2024/03/14 01:01:46;;;;;;;14.27;10.95;;;;;;;9.38;80.31;98681.19;5091509;28;20020;-49
2024/03/14 01:04:13;;;;;;;26.20;23.48;;;;;;;9.50;80.39;98679.66;5092866;28;20028;-49
2024/03/14 01:06:39;;;;;;;16.75;9.05;;;;;;;9.75;80.36;98668.69;5092760;28;20032;-49
2024/03/14 01:09:06;;;;;;;11.70;6.90;;;;;;;9.96;79.85;98673.81;5092779;28;20510;-49
2024/03/14 01:11:32;;;;;;;12.68;7.80;;;;;;;10.05;78.67;98676.25;5092721;28;20119;-49
2024/03/14 01:13:58;;;;;;;36.72;29.48;;;;;;;9.97;78.35;98670.16;5091426;28;20509;-49
2024/03/14 01:16:23;;;;;;;12.45;8.35;;;;;;;9.98;78.60;98669.19;5091497;28;20024;-49
2024/03/14 01:18:50;;;;;;;16.77;14.40;;;;;;;9.96;78.54;98662.50;5092606;28;20486;-49
2024/03/14 01:21:16;;;;;;;21.27;12.45;;;;;;;10.12;78.89;98656.09;5092275;28;20055;-49
2024/03/14 01:23:44;;;;;;;12.85;7.18;;;;;;;10.29;77.41;98665.22;5092595;28;20027;-49
2024/03/14 01:26:09;;;;;;;9.25;7.30;;;;;;;10.27;77.34;98667.22;5091423;28;20031;-49
2024/03/14 01:28:35;;;;;;;12.70;9.80;;;;;;;10.14;76.57;98667.19;5092743;28;20024;-48
2024/03/14 01:31:02;;;;;;;10.40;6.25;;;;;;;10.05;76.82;98658.69;5091294;28;20111;-49
2024/03/14 01:33:30;;;;;;;11.80;10.07;;;;;;;9.99;77.06;98664.72;5092342;28;20400;-49
2024/03/14 01:35:58;;;;;;;18.77;13.32;;;;;;;9.91;77.54;98649.97;5090914;28;20043;-49
2024/03/14 01:38:25;;;;;;;16.85;8.90;;;;;;;9.88;77.54;98658.25;5091261;28;20036;-49
2024/03/14 01:40:50;;;;;;;16.33;10.23;;;;;;;9.87;77.80;98656.63;5091869;28;20036;-49
2024/03/14 01:43:16;;;;;;;11.75;7.97;;;;;;;9.84;77.91;98659.66;5092164;28;20028;-49
2024/03/14 01:45:42;;;;;;;18.02;12.32;;;;;;;9.83;78.09;98647.53;5092178;28;20024;-49
2024/03/14 01:48:09;;;;;;;19.10;17.05;;;;;;;9.82;78.63;98652.97;5092025;28;20035;-49
2024/03/14 01:50:39;;;;;;;11.80;8.55;;;;;;;9.84;78.29;98648.34;5092103;28;20523;-49
2024/03/14 01:53:07;;;;;;;13.07;8.43;;;;;;;9.82;78.29;98652.97;5092310;28;20027;-49
2024/03/14 01:55:39;;;;;;;9.23;6.15;;;;;;;9.79;78.12;98651.56;5091019;28;20027;-49
2024/03/14 01:58:15;;;;;;;38.17;34.35;;;;;;;9.72;78.23;98650.75;5091964;28;20485;-49
2024/03/14 02:00:47;;;;;;;;;;;;;;;9.71;77.89;98649.09;5091351;28;20035;-49
2024/03/14 02:03:17;;;;;;;24.50;19.15;;;;;;;9.68;77.70;98647.69;5092012;28;20286;-49
2024/03/14 02:05:56;;;;;;;64.80;58.13;;;;;;;9.56;78.17;98647.44;5091939;28;20039;-49
2024/03/14 02:08:21;;;;;;;17.67;14.55;;;;;;;9.64;78.17;98648.25;5091778;28;20036;-48
2024/03/14 02:10:47;;;;;;;42.38;37.85;;;;;;;9.62;78.16;98645.84;5090754;28;20024;-49
2024/03/14 02:13:13;;;;;;;479.20;434.55;;;;;;;9.61;78.29;98644.22;5090739;28;20051;-49
2024/03/14 02:15:39;;;;;;;93.07;83.07;;;;;;;9.58;77.70;98631.53;5091735;28;20490;-49
2024/03/14 02:18:05;;;;;;;43.10;38.72;;;;;;;9.46;77.94;98646.19;5090435;28;20474;-49
2024/03/14 02:20:31;;;;;;;22.88;19.10;;;;;;;9.36;78.13;98644.72;5091371;28;20055;-50
2024/03/14 02:23:00;;;;;;;16.58;14.48;;;;;;;9.23;77.91;98644.63;5091808;28;20103;-49
2024/03/14 02:25:26;;;;;;;26.05;20.13;;;;;;;9.16;79.11;98636.75;5091769;28;20504;-49
2024/03/14 02:27:51;;;;;;;18.00;15.57;;;;;;;9.33;79.07;98637.22;5092052;28;20435;-49
2024/03/14 02:30:18;;;;;;;24.27;21.50;;;;;;;9.51;78.69;98638.53;5090382;28;20028;-49
2024/03/14 02:32:48;;;;;;;22.52;11.23;;;;;;;9.91;79.18;98638.69;5091699;28;20028;-49
2024/03/14 02:35:16;;;;;;;17.35;9.02;;;;;;;10.29;76.83;98635.56;5090575;28;20032;-49
2024/03/14 02:37:44;;;;;;;13.65;10.32;;;;;;;10.35;74.73;98637.41;5091641;28;20028;-49
2024/03/14 02:40:11;;;;;;;12.68;7.68;;;;;;;10.28;73.98;98629.53;5091479;28;20081;-49
2024/03/14 02:42:37;;;;;;;16.40;8.48;;;;;;;10.14;73.92;98633.09;5091506;28;20107;-49
2024/03/14 02:45:07;;;;;;;8.15;5.60;;;;;;;10.09;74.64;98619.78;5090501;28;20032;-49
2024/03/14 02:47:33;;;;;;;23.33;16.27;;;;;;;10.04;74.54;98628.25;5091516;28;20494;-49
2024/03/14 02:49:59;;;;;;;15.60;7.28;;;;;;;10.01;74.60;98628.63;5091486;28;20030;-49
2024/03/14 02:52:26;;;;;;;29.02;26.27;;;;;;;10.03;75.16;98624.00;5090943;28;20032;-49
2024/03/14 02:54:52;;;;;;;34.65;31.45;;;;;;;10.12;75.15;98614.13;5095422;28;20035;-49
2024/03/14 02:57:18;;;;;;;17.80;15.82;;;;;;;10.09;74.68;98611.94;5094061;28;20023;-49
2024/03/14 02:59:43;;;;;;;13.15;11.52;;;;;;;9.98;74.20;98616.75;5093973;28;20036;-49
2024/03/14 03:02:11;;;;;;;53.25;48.55;;;;;;;9.91;75.29;98612.47;5095190;28;20028;-48
2024/03/14 03:04:37;;;;;;;11.43;9.02;;;;;;;9.90;75.29;98609.06;5095418;28;20032;-49
2024/03/14 03:07:05;;;;;;;19.23;17.17;;;;;;;9.88;74.85;98618.09;5095214;28;20043;-49
2024/03/14 03:09:31;;;;;;;52.00;47.10;;;;;;;9.67;74.57;98617.25;5095234;28;20489;-49
2024/03/14 03:12:02;;;;;;;16.00;11.60;;;;;;;9.49;75.12;98617.75;5095043;28;20547;-49
2024/03/14 03:14:28;;;;;;;13.50;9.38;;;;;;;9.26;76.29;98610.22;5095036;28;20076;-49
2024/03/14 03:16:54;;;;;;;11.35;7.20;;;;;;;9.23;76.37;98609.78;5095245;28;20024;-49
2024/03/14 03:19:23;;;;;;;17.65;13.73;;;;;;;9.35;77.11;98610.84;5095003;28;20028;-49
2024/03/14 03:21:48;;;;;;;20.20;16.70;;;;;;;9.31;76.89;98612.25;5095097;28;20139;-49
2024/03/14 03:24:15;;;;;;;21.80;17.33;;;;;;;9.11;77.36;98614.75;5093790;28;20052;-49
2024/03/14 03:26:41;;;;;;;19.30;12.80;;;;;;;9.14;78.57;98606.53;5094788;28;20519;-49
2024/03/14 03:29:07;;;;;;;11.48;7.65;;;;;;;9.27;78.51;98611.81;5093808;28;20098;-49
2024/03/14 03:31:34;;;;;;;8.38;6.80;;;;;;;9.47;78.28;98609.28;5094966;28;20024;-49
2024/03/14 03:34:01;;;;;;;15.38;7.93;;;;;;;9.66;77.30;98613.00;5093629;28;20028;-49
2024/03/14 03:36:29;;;;;;;10.48;7.70;;;;;;;9.77;76.60;98601.94;5094544;28;20072;-49
2024/03/14 03:38:56;;;;;;;11.32;6.53;;;;;;;9.80;76.29;98606.81;5094619;28;20106;-49
2024/03/14 03:41:23;;;;;;;11.40;6.90;;;;;;;9.78;75.97;98597.53;5094409;28;20028;-49
2024/03/14 03:43:52;;;;;;;9.23;6.88;;;;;;;9.72;76.33;98607.00;5094748;28;20393;-49
2024/03/14 03:46:18;;;;;;;11.35;6.25;;;;;;;9.78;76.24;98605.41;5094327;28;20031;-49
2024/03/14 03:48:44;;;;;;;10.70;7.72;;;;;;;9.75;75.69;98603.97;5094394;28;20024;-49
2024/03/14 03:51:13;;;;;;;10.65;6.60;;;;;;;9.71;76.31;98607.97;5093256;28;20039;-49
2024/03/14 03:53:39;;;;;;;10.75;6.00;;;;;;;9.66;76.72;98614.81;5093008;28;20074;-49
2024/03/14 03:56:04;;;;;;;10.15;6.78;;;;;;;9.69;76.45;98612.59;5094188;28;20055;-49
2024/03/14 03:58:33;;;;;;;10.35;6.80;;;;;;;9.57;76.83;98614.97;5093210;28;20566;-49
2024/03/14 04:01:10;;;;;;;10.65;6.72;;;;;;;9.27;77.39;98614.44;5092998;28;20430;-49
2024/03/14 04:03:40;;;;;;;10.40;7.28;;;;;;;9.14;77.84;98609.94;5093909;28;20131;-49
2024/03/14 04:06:10;;;;;;;13.63;7.80;;;;;;;8.98;77.89;98608.44;5094008;28;20085;-49
2024/03/14 04:08:37;;;;;;;10.02;6.63;;;;;;;8.88;78.94;98607.16;5093062;28;20028;-49
2024/03/14 04:11:07;;;;;;;9.23;6.47;;;;;;;8.79;79.30;98602.09;5076016;28;20055;-49
2024/03/14 04:13:32;;;;;;;41.58;37.63;;;;;;;8.86;80.20;98599.50;5094096;28;20036;-49
2024/03/14 04:16:00;;;;;;;24.02;20.08;;;;;;;8.85;79.83;98603.09;5092483;28;20053;-49
2024/03/14 04:18:29;;;;;;;11.30;8.60;;;;;;;8.83;80.24;98605.09;5092882;28;20050;-49
2024/03/14 04:20:56;;;;;;;11.10;6.40;;;;;;;8.84;80.24;98596.28;5093553;28;20048;-49
2024/03/14 04:23:24;;;;;;;12.85;8.65;;;;;;;8.78;79.90;98600.44;5093774;28;20039;-49
2024/03/14 04:25:51;;;;;;;9.50;8.48;;;;;;;8.76;80.34;98604.25;5093637;28;20058;-49
2024/03/14 04:28:18;;;;;;;7.78;6.95;;;;;;;8.75;80.74;98603.47;5093587;28;20178;-48
2024/03/14 04:30:45;;;;;;;11.18;5.75;;;;;;;8.87;80.58;98608.16;5093530;28;20020;-49
2024/03/14 04:33:13;;;;;;;9.77;6.25;;;;;;;8.78;80.14;98615.34;5093798;28;20028;-49
2024/03/14 04:35:42;;;;;;;9.02;6.30;;;;;;;8.66;81.09;98614.25;5093535;28;20023;-49
2024/03/14 04:38:09;;;;;;;9.13;6.78;;;;;;;8.64;81.29;98621.47;5093412;28;20414;-49
2024/03/14 04:40:35;;;;;;;11.68;6.30;;;;;;;8.60;82.07;98618.44;5093184;28;20099;-49
2024/03/14 04:43:04;;;;;;;20.88;11.25;;;;;;;8.63;82.45;98619.84;5093326;28;20115;-49
2024/03/14 04:45:29;;;;;;;12.80;9.68;;;;;;;8.68;83.01;98620.09;5093463;28;20470;-49
2024/03/14 04:47:55;;;;;;;9.38;7.50;;;;;;;8.86;82.37;98617.81;5091927;28;20070;-49
2024/03/14 04:50:21;;;;;;;9.95;6.95;;;;;;;8.88;82.26;98618.44;5093169;28;20482;-49
2024/03/14 04:52:49;;;;;;;13.13;7.18;;;;;;;8.99;81.98;98615.31;5093115;28;20031;-49
2024/03/14 04:55:14;;;;;;;17.88;15.10;;;;;;;9.12;81.55;98619.81;5091768;28;20115;-49
2024/03/14 04:57:41;;;;;;;7.95;6.30;;;;;;;9.10;81.02;98615.75;5093055;28;20123;-49
2024/03/14 05:02:49;;;;;;;19.65;17.35;;;;;;;8.98;81.45;98624.13;5093285;28;20028;-49
2024/03/14 05:05:15;;;;;;;15.27;10.60;;;;;;;8.90;81.57;98624.28;5092801;28;20024;-49
2024/03/14 05:07:42;;;;;;;13.35;11.90;;;;;;;8.88;82.16;98628.09;5091548;28;20042;-49
2024/03/14 05:10:09;;;;;;;16.23;13.88;;;;;;;8.82;82.41;98626.25;5092843;28;20118;-49
2024/03/14 05:12:35;;;;;;;13.82;11.07;;;;;;;8.82;82.86;98624.44;5092656;28;20028;-49
2024/03/14 05:15:04;;;;;;;11.45;10.23;;;;;;;8.93;82.68;98618.69;5091236;28;20090;-49
2024/03/14 05:17:30;;;;;;;11.38;8.07;;;;;;;9.05;82.69;98618.13;5091374;28;20116;-49
2024/03/14 05:19:56;;;;;;;21.05;16.42;;;;;;;9.20;82.15;98616.22;5092598;28;20512;-49
2024/03/14 05:22:22;;;;;;;15.35;13.20;;;;;;;9.31;81.31;98613.03;5092394;28;20055;-49
2024/03/14 05:24:48;;;;;;;8.57;5.80;;;;;;;9.33;81.06;98611.03;5092545;28;20040;-49
2024/03/14 05:27:14;;;;;;;13.55;12.07;;;;;;;9.46;80.89;98609.50;5092523;28;20028;-49
2024/03/14 05:29:41;;;;;;;14.88;7.13;;;;;;;9.64;80.82;98616.81;5091191;28;20032;-49
2024/03/14 05:32:20;;;;;;;13.30;6.80;;;;;;;9.77;80.12;98616.88;5092288;28;20097;-49
2024/03/14 05:34:49;;;;;;;17.15;11.93;;;;;;;9.68;79.35;98623.28;5091437;28;20031;-49
2024/03/14 05:37:15;;;;;;;28.27;22.48;;;;;;;9.55;80.05;98624.03;5091274;28;20034;-49
2024/03/14 05:39:44;;;;;;;8.48;6.88;;;;;;;9.58;80.02;98626.28;5092125;28;20035;-49
2024/03/14 05:42:12;;;;;;;7.47;4.78;;;;;;;9.63;80.19;98625.69;5090868;28;20085;-49
2024/03/14 05:44:41;;;;;;;8.23;4.68;;;;;;;9.63;79.60;98631.72;5091149;28;20032;-49
2024/03/14 05:47:10;;;;;;;6.78;4.68;;;;;;;9.54;79.56;98630.31;5092373;28;20024;-49
2024/03/14 05:49:36;;;;;;;7.03;4.30;;;;;;;9.48;79.84;98624.03;5090811;28;20092;-49
2024/03/14 05:52:03;;;;;;;6.45;4.47;;;;;;;9.43;79.98;98625.59;5091004;28;20501;-49
2024/03/14 05:54:30;;;;;;;9.77;8.10;;;;;;;9.42;80.30;98626.59;5092021;28;20107;-49
2024/03/14 05:56:56;;;;;;;14.60;5.53;;;;;;;9.40;80.07;98637.28;5090857;28;20028;-49
2024/03/14 05:59:22;;;;;;;12.30;4.63;;;;;;;9.43;80.39;98625.59;5090666;28;20043;-49
2024/03/14 06:01:48;;;;;;;8.77;4.10;;;;;;;9.58;79.94;98619.22;5090597;28;20029;-49
2024/03/14 06:04:14;;;;;;;7.70;4.90;;;;;;;9.58;78.96;98623.66;5091975;28;20482;-49
2024/03/14 06:06:40;;;;;;;9.80;5.30;;;;;;;9.49;79.28;98620.38;5092217;28;20028;-49
2024/03/14 06:09:06;;;;;;;10.43;4.35;;;;;;;9.51;79.49;98622.81;5091956;28;20028;-49
2024/03/14 06:11:32;;;;;;;11.60;4.88;;;;;;;9.61;79.84;98618.03;5090589;28;20440;-49
2024/03/14 06:13:58;;;;;;;9.23;4.28;;;;;;;9.73;79.51;98624.31;5090578;28;20056;-49
2024/03/14 06:16:25;;;;;;;11.30;4.13;;;;;;;9.88;78.94;98623.34;5091880;28;20020;-49
2024/03/14 06:18:51;;;;;;;11.20;4.03;;;;;;;9.98;78.83;98615.94;5091782;28;20114;-49
2024/03/14 06:21:17;;;;;;;5.72;3.65;;;;;;;10.14;78.39;98623.44;5090146;28;20566;-49
2024/03/14 06:23:42;;;;;;;13.95;5.50;;;;;;;10.33;78.65;98623.69;5090373;28;20076;-49
2024/03/14 06:26:12;;;;;;;9.63;7.90;;;;;;;10.53;77.61;98610.59;5090401;28;20128;-49
2024/03/14 06:28:37;;;;;;;13.85;7.35;;;;;;;10.90;78.24;98614.38;5093371;28;20402;-49
2024/03/14 06:31:03;;;;;;;38.38;7.18;;;;;;;11.23;76.73;98617.97;5095840;28;20020;-49
2024/03/14 06:33:29;;;;;;;10.20;4.30;;;;;;;11.66;74.64;98622.69;5095836;28;20043;-49
2024/03/14 06:35:55;;;;;;;15.30;12.18;;;;;;;11.96;72.26;98625.63;5094688;28;20080;-49
2024/03/14 06:38:24;;;;;;;18.40;14.02;;;;;;;12.08;71.49;98621.28;5094438;28;20105;-49
2024/03/14 06:40:54;;;;;;;11.65;6.82;;;;;;;12.40;71.13;98613.41;5094311;28;20055;-49
2024/03/14 06:43:22;;;;;;;9.30;4.85;;;;;;;12.85;69.13;98620.34;5094338;28;20036;-49
2024/03/14 06:45:51;;;;;;;10.00;7.57;;;;;;;13.13;67.34;98614.59;5094227;28;20035;-49
2024/03/14 06:48:17;;;;;;;15.18;5.13;;;;;;;13.48;65.95;98621.94;5095866;28;20040;-49
2024/03/14 06:50:45;;;;;;;11.77;4.05;;;;;;;13.70;65.11;98619.66;5094169;28;20081;-49
2024/03/14 06:53:12;;;;;;;6.95;3.92;;;;;;;13.93;64.48;98613.69;5095372;28;20028;-49
2024/03/14 06:55:37;;;;;;;9.65;5.53;;;;;;;13.75;63.31;98607.41;5095407;28;20055;-49
2024/03/14 06:58:03;;;;;;;6.78;4.47;;;;;;;13.55;64.75;98609.50;5094145;28;20060;-49
2024/03/14 07:00:30;;;;;;;6.03;3.88;;;;;;;13.55;65.19;98607.66;5094293;28;20439;-49
2024/03/14 07:02:56;;;;;;;9.07;4.32;;;;;;;13.92;64.98;98601.50;5095482;28;20030;-49
2024/03/14 07:05:26;;;;;;;9.27;4.70;;;;;;;14.37;64.67;98596.59;5094175;28;20027;-49
2024/03/14 07:07:52;;;;;;;8.23;4.03;;;;;;;14.86;62.14;98593.78;5095413;28;20030;-49
2024/03/14 07:10:19;;;;;;;8.32;3.83;;;;;;;15.37;61.38;98604.66;5093845;28;20020;-49
2024/03/14 07:12:48;;;;;;;9.50;4.85;;;;;;;16.01;58.95;98594.00;5094063;28;20062;-49
2024/03/14 07:15:14;;;;;;;11.52;6.38;;;;;;;16.54;57.75;98591.94;5095021;28;20039;-49
2024/03/14 07:17:43;;;;;;;12.70;4.40;;;;;;;17.10;56.12;98581.38;5093716;28;20027;-49
2024/03/14 07:20:16;;;;;;;12.95;6.78;;;;;;;17.63;55.01;98593.19;5093577;28;20055;-48
2024/03/14 07:22:43;;;;;;;38.90;35.13;;;;;;;17.98;53.34;98594.63;5094716;28;20411;-47
2024/03/14 07:25:18;;;;;;;43.97;39.90;;;;;;;18.35;52.82;98589.41;5094804;28;20036;-47
2024/03/14 07:27:48;;;;;;;17.67;9.45;;;;;;;18.96;51.53;98591.69;5094807;28;20468;-46
2024/03/14 07:30:24;;;;;;;9.50;5.72;;;;;;;19.48;49.44;98597.28;5094660;28;20031;-47
2024/03/14 07:32:50;;;;;;;12.13;5.55;;;;;;;19.67;48.48;98590.41;5093559;28;20020;-47
2024/03/14 07:35:19;;;;;;;15.48;8.30;;;;;;;20.17;47.19;98588.13;5094691;28;20020;-47
2024/03/14 07:37:47;;;;;;;14.10;8.30;;;;;;;20.73;45.72;98584.69;5094526;28;20031;-45
2024/03/14 07:40:15;;;;;;;11.43;9.80;;;;;;;21.16;45.18;98590.44;5094195;28;20016;-47
2024/03/14 07:42:43;;;;;;;10.45;4.30;;;;;;;21.25;42.99;98599.50;5094486;28;20071;-47
2024/03/14 07:45:16;;;;;;;6.65;4.75;;;;;;;21.33;43.15;98596.28;5094375;28;20020;-47
2024/03/14 07:47:43;;;;;;;12.88;4.25;;;;;;;22.01;43.33;98589.50;5094464;28;20020;-47
2024/03/14 07:50:09;;;;;;;11.05;4.22;;;;;;;22.60;41.44;98587.75;5094334;28;20406;-47
2024/03/14 07:52:39;;;;;;;13.20;4.50;;;;;;;22.75;39.46;98586.81;5094309;28;20020;-47
2024/03/14 07:55:07;;;;;;;7.50;4.43;;;;;;;22.76;40.51;98584.94;5094216;28;20071;-47
2024/03/14 07:57:38;;;;;;;10.82;4.25;;;;;;;23.22;39.45;98597.84;5094381;28;20117;-47
2024/03/14 08:00:08;;;;;;;9.77;3.08;;;;;;;23.41;38.36;98589.88;5094199;28;20492;-47
2024/03/14 08:02:39;;;;;;;8.98;3.35;;;;;;;23.40;37.52;98594.44;5094203;28;20059;-47
2024/03/14 08:05:07;;;;;;;11.52;3.45;;;;;;;23.19;38.15;98599.22;5094034;28;20038;-47
2024/03/14 08:07:34;;;;;;;8.90;4.03;;;;;;;22.93;38.28;98596.78;5094338;28;20332;-47
2024/03/14 08:10:00;;;;;;;10.43;6.80;;;;;;;22.71;39.11;98593.81;5094070;28;20054;-47
2024/03/14 08:12:31;;;;;;;9.70;4.97;;;;;;;22.94;38.53;98603.75;5092647;28;20479;-47
2024/03/14 08:18:04;;;;;;;8.73;3.47;;;;;;;23.06;39.32;98598.03;5092943;28;20024;-47
2024/03/14 08:20:36;;;;;;;13.45;5.05;;;;;;;23.02;38.71;98593.53;5092176;28;20133;-47
2024/03/14 08:23:04;;;;;;;8.93;3.33;;;;;;;23.40;37.72;98598.97;5094041;28;20389;-47
2024/03/14 08:25:36;;;;;;;12.23;3.63;;;;;;;23.75;37.44;98600.41;5093626;28;20489;-47
2024/03/14 08:28:04;;;;;;;7.53;2.85;;;;;;;24.36;36.11;98596.03;5092676;28;20052;-47
2024/03/14 08:30:30;;;;;;;14.48;3.80;;;;;;;24.75;35.83;98602.94;5093558;28;20027;-47
2024/03/14 08:32:57;;;;;;;11.50;4.07;;;;;;;25.24;34.83;98593.47;5092512;28;20020;-47
2024/03/14 08:35:23;;;;;;;17.83;4.55;;;;;;;25.76;34.15;98590.50;5092209;28;20107;-47
2024/03/14 08:37:49;;;;;;;12.95;5.32;;;;;;;26.09;33.00;98595.69;5093421;28;20020;-47
2024/03/14 08:40:15;;;;;;;5.80;4.63;;;;;;;26.49;32.33;98588.53;5091994;28;20097;-47
2024/03/14 08:42:45;;;;;;;18.23;7.78;;;;;;;26.52;31.68;98589.78;5092405;28;20028;-48
2024/03/14 08:45:12;;;;;;;27.63;13.23;;;;;;;26.58;31.80;98588.63;5093268;28;20036;-47
2024/03/14 08:47:38;;;;;;;28.73;18.25;;;;;;;26.96;31.59;98590.84;5093325;28;20038;-47
2024/03/14 08:50:05;;;;;;;21.25;16.88;;;;;;;27.49;30.81;98589.94;5091015;28;20204;-47
2024/03/14 08:52:31;;;;;;;17.48;14.10;;;;;;;27.81;29.78;98589.78;5093126;28;20069;-47
2024/03/14 08:54:58;;;;;;;10.00;6.70;;;;;;;28.14;28.86;98586.66;5092092;28;20024;-48
2024/03/14 08:57:25;;;;;;;9.82;6.25;;;;;;;28.31;28.47;98594.72;5093068;28;20111;-47
2024/03/14 08:59:53;;;;;;;7.60;4.95;;;;;;;28.90;28.04;98596.03;5092954;28;20031;-47
2024/03/14 09:02:23;;;;;;;10.70;4.47;;;;;;;29.52;27.19;98598.13;5093002;28;20077;-48
2024/03/14 09:04:51;;;;;;;7.93;3.03;;;;;;;29.55;26.27;98597.47;5091599;28;20059;-48
2024/03/14 09:07:17;;;;;;;4.07;2.17;;;;;;;29.25;26.36;98594.78;5092828;28;20042;-48
2024/03/14 09:09:44;;;;;;;7.05;3.15;;;;;;;28.80;26.85;98605.28;5092948;28;20020;-47
2024/03/14 09:12:45;;;;;;;7.18;4.03;;;;;;;28.36;27.26;98604.56;5092777;28;20020;-47
2024/03/14 09:15:02;;;;;;;7.57;3.28;;;;;;;28.10;27.33;98610.78;5091452;28;20032;-48
2024/03/14 09:17:29;;;;;;;4.60;2.50;;;;;;;27.75;27.70;98596.44;5092785;28;20401;-47
2024/03/14 09:19:55;;;;;;;4.57;3.00;;;;;;;27.79;28.19;98609.00;5092616;28;20107;-48
2024/03/14 09:22:22;;;;;;;4.20;2.22;;;;;;;28.23;27.75;98611.72;5091229;28;20143;-47
2024/03/14 09:24:47;;;;;;;5.18;2.03;;;;;;;28.78;27.33;98604.81;5092595;28;20202;-47
2024/03/14 09:27:13;;;;;;;3.28;2.08;;;;;;;29.14;27.19;98609.78;5092601;28;20509;-47
2024/03/14 09:29:39;;;;;;;8.43;5.93;;;;;;;29.50;26.34;98613.09;5092541;28;20024;-47
2024/03/14 09:32:05;;;;;;;8.27;3.03;;;;;;;29.59;26.19;98601.09;5092486;28;20012;-48
2024/03/14 09:34:32;;;;;;;10.38;3.08;;;;;;;29.96;26.20;98603.25;5092458;28;20051;-48
2024/03/14 09:36:57;;;;;;;5.20;2.42;;;;;;;30.18;25.82;98611.00;5092581;28;20039;-48
2024/03/14 09:39:23;;;;;;;22.35;20.35;;;;;;;29.85;24.91;98610.97;5092372;28;20497;-48
2024/03/14 09:41:49;;;;;;;5.63;2.40;;;;;;;29.23;25.84;98609.75;5090831;28;20042;-48
2024/03/14 09:44:17;;;;;;;8.02;2.78;;;;;;;28.87;26.59;98602.88;5090986;28;20379;-48
2024/03/14 09:46:49;;;;;;;9.98;2.38;;;;;;;28.34;27.55;98604.88;5092260;28;20510;-47
2024/03/14 09:49:19;;;;;;;6.03;2.25;;;;;;;28.67;26.96;98601.66;5092285;28;20028;-48
2024/03/14 09:51:48;;;;;;;7.40;2.53;;;;;;;28.94;27.02;98605.09;5092156;28;20035;-48
2024/03/14 09:54:20;;;;;;;5.80;2.72;;;;;;;29.23;26.53;98593.53;5090756;28;20031;-47
2024/03/14 09:56:46;;;;;;;9.07;2.63;;;;;;;29.21;26.68;98601.94;5092013;28;20020;-47
2024/03/14 09:59:11;;;;;;;7.30;3.30;;;;;;;29.13;26.46;98596.59;5092051;28;20023;-48
2024/03/14 10:01:44;;;;;;;7.15;3.15;;;;;;;29.10;26.97;98595.31;5090681;28;20047;-47
2024/03/14 10:04:11;;;;;;;4.63;2.00;;;;;;;29.35;26.90;98584.72;5091965;28;20024;-47
2024/03/14 10:06:40;;;;;;;8.52;2.47;;;;;;;29.37;26.68;98598.69;5091979;28;20048;-47
2024/03/14 10:09:12;;;;;;;3.85;1.77;;;;;;;29.15;25.96;98592.44;5091983;28;20516;-47
2024/03/14 10:11:38;;;;;;;9.68;4.22;;;;;;;28.96;26.87;98584.72;5090656;28;20016;-47
2024/03/14 10:14:06;;;;;;;6.95;3.55;;;;;;;28.78;26.32;98580.50;5091857;28;20024;-47
2024/03/14 10:16:32;;;;;;;16.65;7.63;;;;;;;28.92;27.35;98599.22;5090573;28;20490;-47
2024/03/14 10:18:58;;;;;;;7.60;3.60;;;;;;;29.44;25.75;98588.16;5091807;28;20016;-47
2024/03/14 10:21:25;;;;;;;7.97;4.60;;;;;;;29.85;25.72;98592.03;5091546;28;20166;-47
2024/03/14 10:23:51;;;;;;;4.85;2.05;;;;;;;29.79;25.41;98593.34;5090770;28;20024;-47
2024/03/14 10:26:16;;;;;;;8.68;3.25;;;;;;;28.68;26.39;98589.75;5091989;28;20121;-47
2024/03/14 10:28:42;;;;;;;5.97;3.35;;;;;;;28.04;27.16;98588.56;5091792;28;20478;-47
2024/03/14 10:31:08;;;;;;;5.28;2.25;;;;;;;28.21;26.87;98582.38;5091730;28;20024;-48
2024/03/14 10:33:33;;;;;;;6.60;2.17;;;;;;;28.31;26.03;98575.03;5091695;28;20107;-47
2024/03/14 10:36:00;;;;;;;3.47;1.60;;;;;;;28.33;26.30;98573.59;5090361;28;20020;-48
2024/03/14 10:38:27;;;;;;;3.33;1.48;;;;;;;28.63;25.63;98571.81;5090408;28;20032;-48
2024/03/14 10:41:05;;;;;;;8.65;4.55;;;;;;;27.99;26.04;98579.81;5090197;28;20024;-47
2024/03/14 10:43:37;;;;;;;6.35;2.70;;;;;;;26.65;26.71;98577.41;5091621;28;20494;-47
2024/03/14 10:46:08;;;;;;;3.17;1.73;;;;;;;24.97;28.31;98575.44;5090342;28;20048;-47
2024/03/14 10:48:38;;;;;;;6.70;2.22;;;;;;;24.16;29.96;98581.06;5091604;28;20031;-47
2024/03/14 10:51:06;;;;;;;6.72;2.90;;;;;;;23.82;31.05;98578.63;5091459;28;20085;-47
2024/03/14 10:53:35;;;;;;;6.22;2.10;;;;;;;23.59;30.98;98565.00;5090313;28;20027;-47
2024/03/14 10:56:03;;;;;;;6.63;3.35;;;;;;;23.86;31.54;98566.25;5091504;28;20024;-47
2024/03/14 10:58:31;;;;;;;4.43;1.52;;;;;;;24.84;29.92;98554.72;5090587;28;20039;-47
2024/03/14 11:00:59;;;;;;;8.85;4.20;;;;;;;25.81;27.97;98554.63;5091292;28;20043;-47
2024/03/14 11:03:27;;;;;;;6.30;3.28;;;;;;;25.97;26.88;98557.78;5090109;28;20086;-48
2024/03/14 11:05:56;;;;;;;16.60;10.93;;;;;;;25.69;26.37;98560.53;5091389;28;20081;-48
2024/03/14 11:08:23;;;;;;;14.23;6.03;;;;;;;25.73;27.10;98541.91;5091325;28;20024;-47
2024/03/14 11:10:55;;;;;;;81.78;71.93;;;;;;;26.14;26.01;98516.75;5090148;28;20047;-47
2024/03/14 11:13:27;;;;;;;20.98;16.63;;;;;;;26.21;25.70;98523.31;5092026;28;20020;-47
2024/03/14 11:15:57;;;;;;;11.07;4.80;;;;;;;26.57;24.59;98503.53;5095095;28;20036;-47
2024/03/14 11:18:32;;;;;;;20.20;12.50;;;;;;;26.79;25.51;98523.47;5094046;28;20048;-47
2024/03/14 11:21:03;;;;;;;22.80;9.25;;;;;;;26.99;25.61;98506.72;5093391;28;20052;-48
2024/03/14 11:23:30;;;;;;;4.93;2.30;;;;;;;26.97;24.11;98500.06;5095204;28;20036;-48
2024/03/14 11:26:02;;;;;;;6.85;2.22;;;;;;;26.72;26.19;98499.66;5093549;28;20080;-47
2024/03/14 11:28:31;;;;;;;3.60;1.77;;;;;;;26.79;24.16;98505.41;5093912;28;20028;-48
2024/03/14 11:31:00;;;;;;;7.72;2.00;;;;;;;26.89;23.83;98499.72;5093460;28;20026;-47
2024/03/14 11:33:29;;;;;;;7.25;2.60;;;;;;;27.14;22.75;98499.31;5094696;28;20035;-48
2024/03/14 11:35:59;;;;;;;6.88;1.52;;;;;;;27.10;22.24;98504.53;5094674;28;20050;-48